createdAt,value
2022-12-29T00:01:19.315Z,88.80
2022-12-29T00:03:48.372Z,89.60
2022-12-29T00:06:16.969Z,90.20
2022-12-29T00:08:45.247Z,90.60
2022-12-29T00:11:15.259Z,90.80
2022-12-29T00:14:03.093Z,91.10
2022-12-29T00:16:32.903Z,91.50
2022-12-29T00:19:01.401Z,91.70
2022-12-29T00:21:47.876Z,91.90
2022-12-29T00:24:36.689Z,92.00
2022-12-29T00:27:31.722Z,92.10
2022-12-29T00:30:18.927Z,92.30
2022-12-29T00:33:04.583Z,92.50
2022-12-29T00:35:40.634Z,92.60
2022-12-29T00:38:28.361Z,92.60
2022-12-29T00:41:14.276Z,92.70
2022-12-29T00:44:00.115Z,92.90
2022-12-29T00:46:30.749Z,93.10
2022-12-29T00:49:17.968Z,93.30
2022-12-29T00:51:46.529Z,93.40
2022-12-29T00:54:15.497Z,93.50
2022-12-29T00:56:43.888Z,93.60
2022-12-29T00:59:13.507Z,93.70
2022-12-29T01:01:43.896Z,93.80
2022-12-29T01:04:13.122Z,94.00
2022-12-29T01:06:42.974Z,94.20
2022-12-29T01:09:28.649Z,94.50
2022-12-29T01:11:57.297Z,94.70
2022-12-29T01:14:26.259Z,94.90
2022-12-29T01:16:57.051Z,95.20
2022-12-29T01:19:25.918Z,95.50
2022-12-29T01:21:54.438Z,95.70
2022-12-29T01:24:23.567Z,95.90
2022-12-29T01:26:51.924Z,96.10
2022-12-29T01:29:20.528Z,96.20
2022-12-29T01:31:50.855Z,96.40
2022-12-29T01:34:20.877Z,96.50
2022-12-29T01:36:49.240Z,96.70
2022-12-29T01:39:17.997Z,96.90
2022-12-29T01:41:46.370Z,97.00
2022-12-29T01:44:56.078Z,97.10
2022-12-29T01:47:35.847Z,97.20
2022-12-29T01:50:10.454Z,97.30
2022-12-29T01:52:42.683Z,97.40
2022-12-29T01:55:12.880Z,97.40
2022-12-29T01:57:46.352Z,97.50
2022-12-29T02:00:17.944Z,97.60
2022-12-29T02:02:52.964Z,97.70
2022-12-29T02:05:29.509Z,97.80
2022-12-29T02:07:58.091Z,97.90
2022-12-29T02:10:30.312Z,98.00
2022-12-29T02:12:58.972Z,97.90
2022-12-29T02:15:43.866Z,97.90
2022-12-29T02:18:27.839Z,97.90
2022-12-29T02:21:41.702Z,98.30
2022-12-29T02:24:39.309Z,98.00
2022-12-29T02:27:38.722Z,98.10
2022-12-29T02:30:20.271Z,98.40
2022-12-29T02:32:56.650Z,98.50
2022-12-29T02:35:35.041Z,98.70
2022-12-29T02:38:14.173Z,98.80
2022-12-29T02:40:50.518Z,99.00
2022-12-29T02:43:28.347Z,99.20
2022-12-29T02:46:00.709Z,99.30
2022-12-29T02:48:34.224Z,99.50
2022-12-29T02:51:05.614Z,99.60
2022-12-29T02:53:54.043Z,99.80
2022-12-29T02:56:23.207Z,99.80
2022-12-29T02:58:51.600Z,99.90
2022-12-29T03:01:31.726Z,99.90
2022-12-29T03:04:22.189Z,99.90
2022-12-29T03:06:59.976Z,99.90
2022-12-29T03:09:38.619Z,99.90
2022-12-29T03:12:18.409Z,99.90
2022-12-29T03:15:14.647Z,99.90
2022-12-29T03:17:57.688Z,99.90
2022-12-29T03:20:35.238Z,99.90
2022-12-29T03:23:05.936Z,99.90
2022-12-29T03:25:41.328Z,99.90
2022-12-29T03:28:17.219Z,99.90
2022-12-29T03:30:49.421Z,99.90
2022-12-29T03:33:25.036Z,99.90
2022-12-29T03:36:03.779Z,99.90
2022-12-29T03:38:37.933Z,99.90
2022-12-29T03:41:10.056Z,99.90
2022-12-29T03:43:38.432Z,99.90
2022-12-29T03:46:07.538Z,99.90
2022-12-29T03:48:36.820Z,99.90
2022-12-29T03:51:07.096Z,99.90
2022-12-29T03:53:35.986Z,99.90
2022-12-29T03:56:05.346Z,99.90
2022-12-29T03:58:35.271Z,99.90
2022-12-29T04:01:12.674Z,99.90
2022-12-29T04:03:41.355Z,99.90
2022-12-29T04:06:11.179Z,99.90
2022-12-29T04:08:50.872Z,99.90
2022-12-29T04:11:19.432Z,99.90
2022-12-29T04:13:47.967Z,99.90
2022-12-29T04:16:20.535Z,99.90
2022-12-29T04:18:49.315Z,99.90
2022-12-29T04:21:19.244Z,99.90
2022-12-29T04:23:47.830Z,99.90
2022-12-29T04:26:18.303Z,99.90
2022-12-29T04:29:02.094Z,99.90
2022-12-29T04:31:44.373Z,99.90
2022-12-29T04:34:13.141Z,99.90
2022-12-29T04:36:42.888Z,99.90
2022-12-29T04:39:11.298Z,99.90
2022-12-29T04:41:41.342Z,99.90
2022-12-29T04:44:14.280Z,99.90
2022-12-29T04:47:05.492Z,99.90
2022-12-29T04:50:06.782Z,99.90
2022-12-29T04:52:43.032Z,99.90
2022-12-29T04:55:13.106Z,99.90
2022-12-29T04:57:42.416Z,99.90
2022-12-29T05:00:13.774Z,99.90
2022-12-29T05:02:42.463Z,99.90
2022-12-29T05:05:11.333Z,99.90
2022-12-29T05:07:45.296Z,99.90
2022-12-29T05:10:13.851Z,99.90
2022-12-29T05:12:42.886Z,99.90
2022-12-29T05:15:13.035Z,99.90
2022-12-29T05:17:41.427Z,99.90
2022-12-29T05:20:11.622Z,99.90
2022-12-29T05:22:40.176Z,99.90
2022-12-29T05:25:11.375Z,99.90
2022-12-29T05:27:59.949Z,99.90
2022-12-29T05:30:49.841Z,99.90
2022-12-29T05:33:20.484Z,99.90
2022-12-29T05:35:50.839Z,99.90
2022-12-29T05:38:20.457Z,99.90
2022-12-29T05:40:50.438Z,99.90
2022-12-29T05:43:54.082Z,99.90
2022-12-29T05:46:40.931Z,99.90
2022-12-29T05:49:17.725Z,99.90
2022-12-29T05:51:56.752Z,99.90
2022-12-29T05:54:25.216Z,99.90
2022-12-29T05:56:55.476Z,99.90
2022-12-29T05:59:24.416Z,99.90
2022-12-29T06:01:55.110Z,99.90
2022-12-29T06:04:24.328Z,99.90
2022-12-29T06:06:52.897Z,99.90
2022-12-29T06:09:28.160Z,99.90
2022-12-29T06:11:58.189Z,99.90
2022-12-29T06:14:26.915Z,99.90
2022-12-29T06:16:55.279Z,99.90
2022-12-29T06:19:24.059Z,99.90
2022-12-29T06:21:53.577Z,99.90
2022-12-29T06:24:22.341Z,99.90
2022-12-29T06:26:50.737Z,99.90
2022-12-29T06:29:21.686Z,99.90
2022-12-29T06:31:52.204Z,99.90
2022-12-29T06:34:20.652Z,99.90
2022-12-29T06:36:49.091Z,99.90
2022-12-29T06:39:17.599Z,99.90
2022-12-29T06:41:55.331Z,99.90
2022-12-29T06:44:38.646Z,99.90
2022-12-29T06:47:11.739Z,99.90
2022-12-29T06:49:40.208Z,99.90
2022-12-29T06:52:12.752Z,99.90
2022-12-29T06:54:41.719Z,99.90
2022-12-29T06:57:10.143Z,99.90
2022-12-29T06:59:39.759Z,99.90
2022-12-29T07:02:08.447Z,99.90
2022-12-29T07:04:36.925Z,99.90
2022-12-29T07:07:05.512Z,99.90
2022-12-29T07:09:33.902Z,99.90
2022-12-29T07:12:02.350Z,99.90
2022-12-29T07:14:30.724Z,99.90
2022-12-29T07:17:00.443Z,99.90
2022-12-29T07:19:28.875Z,99.90
2022-12-29T07:21:57.353Z,99.90
2022-12-29T07:24:26.694Z,99.90
2022-12-29T07:26:55.131Z,99.90
2022-12-29T07:29:23.755Z,99.90
2022-12-29T07:31:52.144Z,99.90
2022-12-29T07:34:21.989Z,99.90
2022-12-29T07:36:50.356Z,99.90
2022-12-29T07:39:18.699Z,99.90
2022-12-29T07:41:47.106Z,99.90
2022-12-29T07:44:19.803Z,99.90
2022-12-29T07:47:06.642Z,99.90
2022-12-29T07:49:36.548Z,99.90
2022-12-29T07:52:05.129Z,99.90
2022-12-29T07:54:33.489Z,99.90
2022-12-29T07:57:02.248Z,99.90
2022-12-29T07:59:31.609Z,99.90
2022-12-29T08:02:00.320Z,99.90
2022-12-29T08:04:28.973Z,99.90
2022-12-29T08:06:58.679Z,99.90
2022-12-29T08:09:27.065Z,99.90
2022-12-29T08:11:56.370Z,99.90
2022-12-29T08:14:24.744Z,99.90
2022-12-29T08:16:53.068Z,99.90
2022-12-29T08:19:21.399Z,99.90
2022-12-29T08:21:49.837Z,99.90
2022-12-29T08:24:19.398Z,99.90
2022-12-29T08:26:47.774Z,99.90
2022-12-29T08:29:16.088Z,99.90
2022-12-29T08:31:44.400Z,99.90
2022-12-29T08:34:12.931Z,99.90
2022-12-29T08:36:41.309Z,99.90
2022-12-29T08:39:09.682Z,99.90
2022-12-29T08:41:39.556Z,99.90
2022-12-29T08:44:08.039Z,99.90
2022-12-29T08:46:36.540Z,99.90
2022-12-29T08:49:04.985Z,99.90
2022-12-29T08:51:33.387Z,96.60
2022-12-29T08:54:01.890Z,92.70
2022-12-29T08:56:30.615Z,90.30
2022-12-29T08:59:02.722Z,88.80
2022-12-29T09:01:34.756Z,85.80
2022-12-29T09:04:15.069Z,81.70
2022-12-29T09:06:45.691Z,78.70
2022-12-29T09:09:14.578Z,76.50
2022-12-29T09:11:43.822Z,74.80
2022-12-29T09:14:13.749Z,72.60
2022-12-29T09:17:00.160Z,71.40
2022-12-29T09:19:28.568Z,70.80
2022-12-29T09:21:57.000Z,70.50
2022-12-29T09:24:25.370Z,70.70
2022-12-29T09:26:53.727Z,71.00
2022-12-29T09:29:23.504Z,71.00
2022-12-29T09:31:52.561Z,71.20
2022-12-29T09:34:21.000Z,71.40
2022-12-29T09:36:49.292Z,71.60
2022-12-29T09:39:17.669Z,71.90
2022-12-29T09:41:51.929Z,72.10
2022-12-29T09:44:28.197Z,73.40
2022-12-29T09:46:59.116Z,73.10
2022-12-29T09:49:35.166Z,73.50
2022-12-29T09:52:07.378Z,74.00
2022-12-29T09:54:48.188Z,74.40
2022-12-29T09:57:26.517Z,74.70
2022-12-29T10:00:00.331Z,75.00
2022-12-29T10:02:48.864Z,75.50
2022-12-29T10:05:29.205Z,75.70
2022-12-29T10:08:15.616Z,76.30
2022-12-29T10:10:53.019Z,76.90
2022-12-29T10:13:36.399Z,77.70
2022-12-29T10:16:14.893Z,78.60
2022-12-29T10:19:09.159Z,79.70
2022-12-29T10:21:49.920Z,80.20
2022-12-29T10:24:21.149Z,80.60
2022-12-29T10:26:53.266Z,80.60
2022-12-29T10:29:24.140Z,80.60
2022-12-29T10:32:02.019Z,81.00
2022-12-29T10:34:34.564Z,81.60
2022-12-29T10:37:07.333Z,82.10
2022-12-29T10:39:41.922Z,82.40
2022-12-29T10:42:16.918Z,82.60
2022-12-29T10:44:45.241Z,83.00
2022-12-29T10:47:21.447Z,83.30
2022-12-29T10:49:50.501Z,83.90
2022-12-29T10:52:22.217Z,84.30
2022-12-29T10:54:54.812Z,85.10
2022-12-29T10:57:29.454Z,86.00
2022-12-29T10:59:57.947Z,90.10
2022-12-29T11:02:45.716Z,92.50
2022-12-29T11:05:24.987Z,95.00
2022-12-29T11:07:57.428Z,97.50
2022-12-29T11:10:32.625Z,96.90
2022-12-29T11:13:03.741Z,93.10
2022-12-29T11:15:41.716Z,88.10
2022-12-29T11:18:23.974Z,79.70
2022-12-29T11:20:54.529Z,71.50
2022-12-29T11:23:33.432Z,66.30
2022-12-29T11:26:18.790Z,62.40
2022-12-29T11:28:49.517Z,59.30
2022-12-29T11:31:19.745Z,57.40
2022-12-29T11:33:49.530Z,56.50
2022-12-29T11:36:20.651Z,55.40
2022-12-29T11:38:52.234Z,54.40
2022-12-29T11:41:25.986Z,53.20
2022-12-29T11:43:57.381Z,52.30
2022-12-29T11:46:29.498Z,52.00
2022-12-29T11:49:01.903Z,51.80
2022-12-29T11:51:32.750Z,51.40
2022-12-29T11:54:04.459Z,50.60
2022-12-29T11:56:41.253Z,50.10
2022-12-29T11:59:42.920Z,49.90
2022-12-29T12:02:30.334Z,50.00
2022-12-29T12:05:06.869Z,50.00
2022-12-29T12:07:43.248Z,50.00
2022-12-29T12:10:22.191Z,50.30
2022-12-29T12:12:58.309Z,50.40
2022-12-29T12:15:31.346Z,50.50
2022-12-29T12:18:06.182Z,51.20
2022-12-29T12:20:43.726Z,51.60
2022-12-29T12:23:22.549Z,51.70
2022-12-29T12:25:58.805Z,51.00
2022-12-29T12:28:37.104Z,50.80
2022-12-29T12:31:13.612Z,50.60
2022-12-29T12:33:46.289Z,50.30
2022-12-29T12:36:34.320Z,51.20
2022-12-29T12:39:07.318Z,51.40
2022-12-29T12:41:47.383Z,51.30
2022-12-29T12:44:25.460Z,51.60
2022-12-29T12:47:24.460Z,52.80
2022-12-29T12:50:13.885Z,52.10
2022-12-29T12:53:08.746Z,52.00
2022-12-29T12:55:48.982Z,51.90
2022-12-29T12:58:27.423Z,52.20
2022-12-29T13:01:12.336Z,51.20
2022-12-29T13:03:54.631Z,50.70
2022-12-29T13:06:34.621Z,50.60
2022-12-29T13:09:31.130Z,50.60
2022-12-29T13:12:16.052Z,50.10
2022-12-29T13:14:55.794Z,50.00
2022-12-29T13:17:32.478Z,49.80
2022-12-29T13:20:11.400Z,49.80
2022-12-29T13:22:45.344Z,50.30
2022-12-29T13:25:29.713Z,50.60
2022-12-29T13:28:07.259Z,50.60
2022-12-29T13:30:40.980Z,50.40
2022-12-29T13:33:21.717Z,50.50
2022-12-29T13:36:01.556Z,50.60
2022-12-29T13:38:35.970Z,50.70
2022-12-29T13:41:10.376Z,50.70
2022-12-29T13:43:42.468Z,50.50
2022-12-29T13:46:15.327Z,50.30
2022-12-29T13:48:48.622Z,50.30
2022-12-29T13:51:22.698Z,51.00
2022-12-29T13:54:12.053Z,50.40
2022-12-29T13:56:45.815Z,50.40
2022-12-29T13:59:23.403Z,50.60
2022-12-29T14:01:59.793Z,50.80
2022-12-29T14:04:33.790Z,51.10
2022-12-29T14:07:05.038Z,51.40
2022-12-29T14:09:43.973Z,51.80
2022-12-29T14:12:33.464Z,52.10
2022-12-29T14:15:16.679Z,52.40
2022-12-29T14:17:46.067Z,52.70
2022-12-29T14:20:23.866Z,52.90
2022-12-29T14:23:00.169Z,53.20
2022-12-29T14:25:54.953Z,53.40
2022-12-29T14:28:28.648Z,53.80
2022-12-29T14:30:58.749Z,54.10
2022-12-29T14:33:29.690Z,54.40
2022-12-29T14:35:59.241Z,54.70
2022-12-29T14:38:32.568Z,55.00
2022-12-29T14:41:21.325Z,55.40
2022-12-29T14:44:04.912Z,55.70
2022-12-29T14:46:48.789Z,56.10
2022-12-29T14:49:20.917Z,56.40
2022-12-29T14:51:50.311Z,56.60
2022-12-29T14:54:47.472Z,57.00
2022-12-29T14:57:31.941Z,57.30
2022-12-29T15:00:07.956Z,57.50
2022-12-29T15:02:41.850Z,57.90
2022-12-29T15:05:36.284Z,58.20
2022-12-29T15:08:05.700Z,58.50
2022-12-29T15:10:41.939Z,58.80
2022-12-29T15:13:18.913Z,59.10
2022-12-29T15:15:49.897Z,59.30
2022-12-29T15:18:26.652Z,59.50
2022-12-29T15:20:57.967Z,59.90
2022-12-29T15:23:27.117Z,60.10
2022-12-29T15:25:58.168Z,60.60
2022-12-29T15:28:27.864Z,61.10
2022-12-29T15:31:03.390Z,61.40
2022-12-29T15:33:31.954Z,61.90
2022-12-29T15:36:05.687Z,62.30
2022-12-29T15:38:40.205Z,62.60
2022-12-29T15:41:15.602Z,62.90
2022-12-29T15:43:53.025Z,63.20
2022-12-29T15:46:22.774Z,63.60
2022-12-29T15:48:51.291Z,63.90
2022-12-29T15:51:22.409Z,64.20
2022-12-29T15:53:53.296Z,64.60
2022-12-29T15:56:21.829Z,65.20
2022-12-29T15:58:52.540Z,65.70
2022-12-29T16:01:29.935Z,66.60
2022-12-29T16:04:00.032Z,67.50
2022-12-29T16:06:34.230Z,68.50
2022-12-29T16:09:05.015Z,69.60
2022-12-29T16:11:37.825Z,70.60
2022-12-29T16:14:12.053Z,71.50
2022-12-29T16:16:43.701Z,72.60
2022-12-29T16:19:16.453Z,74.30
2022-12-29T16:21:45.475Z,74.60
2022-12-29T16:24:17.910Z,75.50
2022-12-29T16:26:51.787Z,76.80
2022-12-29T16:29:22.932Z,77.90
2022-12-29T16:32:01.565Z,78.80
2022-12-29T16:34:33.556Z,79.50
2022-12-29T16:37:03.878Z,80.40
2022-12-29T16:39:40.484Z,81.00
2022-12-29T16:42:37.914Z,81.50
2022-12-29T16:45:57.886Z,81.80
2022-12-29T16:48:29.149Z,82.20
2022-12-29T16:51:05.683Z,82.40
2022-12-29T16:53:37.677Z,82.50
2022-12-29T16:56:11.783Z,82.90
2022-12-29T16:58:42.723Z,83.30
2022-12-29T17:01:20.428Z,83.20
2022-12-29T17:03:54.022Z,84.10
2022-12-29T17:06:24.508Z,83.70
2022-12-29T17:08:53.837Z,84.20
2022-12-29T17:11:42.697Z,84.60
2022-12-29T17:14:22.524Z,85.40
2022-12-29T17:16:51.176Z,86.40
2022-12-29T17:19:25.277Z,87.00
2022-12-29T17:21:53.615Z,87.90
2022-12-29T17:24:22.128Z,88.80
2022-12-29T17:26:52.897Z,89.70
2022-12-29T17:29:31.117Z,90.10
2022-12-29T17:32:00.249Z,90.40
2022-12-29T17:34:30.036Z,90.80
2022-12-29T17:36:58.420Z,91.10
2022-12-29T17:39:26.735Z,91.50
2022-12-29T17:41:55.251Z,91.90
2022-12-29T17:44:26.424Z,92.40
2022-12-29T17:46:54.864Z,92.80
2022-12-29T17:49:23.135Z,93.00
2022-12-29T17:51:52.839Z,93.20
2022-12-29T17:54:23.132Z,93.50
2022-12-29T17:56:51.642Z,93.70
2022-12-29T17:59:20.743Z,93.90
2022-12-29T18:01:50.724Z,94.10
2022-12-29T18:04:22.552Z,94.30
2022-12-29T18:06:52.191Z,94.60
2022-12-29T18:09:22.735Z,94.80
2022-12-29T18:11:51.434Z,95.20
2022-12-29T18:14:19.793Z,95.50
2022-12-29T18:16:48.085Z,95.80
2022-12-29T18:19:16.337Z,96.10
2022-12-29T18:21:45.949Z,96.50
2022-12-29T18:24:16.816Z,96.80
2022-12-29T18:26:45.225Z,97.20
2022-12-29T18:29:13.560Z,97.40
2022-12-29T18:31:41.996Z,97.60
2022-12-29T18:34:15.938Z,97.80
2022-12-29T18:36:44.309Z,97.90
2022-12-29T18:39:13.046Z,98.20
2022-12-29T18:41:42.650Z,98.50
2022-12-29T18:44:13.832Z,98.70
2022-12-29T18:46:42.292Z,98.90
2022-12-29T18:49:10.696Z,99.00
2022-12-29T18:51:39.021Z,99.30
2022-12-29T18:54:07.379Z,99.60
2022-12-29T18:56:35.709Z,99.90
2022-12-29T18:59:05.329Z,99.90
2022-12-29T19:01:33.788Z,99.90
2022-12-29T19:04:02.319Z,99.90
2022-12-29T19:06:30.779Z,99.90
2022-12-29T19:08:59.213Z,99.90
2022-12-29T19:11:27.531Z,99.90
2022-12-29T19:13:55.834Z,99.90
2022-12-29T19:16:27.023Z,99.90
2022-12-29T19:19:09.089Z,99.90
2022-12-29T19:21:38.562Z,99.90
2022-12-29T19:24:07.615Z,99.90
2022-12-29T19:26:38.413Z,99.90
2022-12-29T19:29:08.437Z,99.90
2022-12-29T19:31:39.430Z,99.90
2022-12-29T19:34:07.939Z,99.90
2022-12-29T19:36:36.469Z,99.90
2022-12-29T19:39:04.971Z,99.90
2022-12-29T19:41:33.596Z,99.90
2022-12-29T19:44:01.935Z,99.90
2022-12-29T19:46:30.330Z,99.90
2022-12-29T19:49:01.239Z,99.90
2022-12-29T19:51:29.751Z,99.90
2022-12-29T19:53:58.642Z,99.90
2022-12-29T19:56:27.009Z,99.90
2022-12-29T19:58:57.505Z,99.90
2022-12-29T20:01:27.522Z,99.90
2022-12-29T20:03:55.988Z,99.90
2022-12-29T20:06:25.650Z,99.90
2022-12-29T20:08:55.802Z,99.90
2022-12-29T20:11:26.933Z,99.90
2022-12-29T20:13:55.190Z,99.90
2022-12-29T20:16:24.998Z,99.90
2022-12-29T20:18:55.472Z,99.90
2022-12-29T20:21:26.530Z,99.90
2022-12-29T20:23:56.443Z,99.90
2022-12-29T20:26:27.120Z,99.90
2022-12-29T20:28:58.725Z,99.90
2022-12-29T20:31:29.114Z,99.90
2022-12-29T20:33:57.765Z,99.90
2022-12-29T20:36:29.360Z,99.90
2022-12-29T20:38:59.733Z,99.90
2022-12-29T20:41:28.841Z,99.90
2022-12-29T20:43:57.239Z,99.90
2022-12-29T20:46:32.844Z,99.90
2022-12-29T20:49:05.626Z,99.90
2022-12-29T20:52:04.474Z,99.90
2022-12-29T20:54:24.489Z,99.90
2022-12-29T20:56:53.226Z,99.90
2022-12-29T20:59:29.739Z,99.90
2022-12-29T21:01:58.721Z,99.90
2022-12-29T21:04:27.677Z,99.90
2022-12-29T21:06:57.430Z,99.90
2022-12-29T21:09:25.808Z,99.90
2022-12-29T21:11:54.464Z,99.90
2022-12-29T21:14:22.820Z,99.90
2022-12-29T21:16:51.229Z,99.90
2022-12-29T21:19:19.570Z,99.90
2022-12-29T21:21:47.938Z,99.90
2022-12-29T21:24:19.762Z,99.90
2022-12-29T21:26:48.754Z,99.90
2022-12-29T21:29:17.107Z,99.90
2022-12-29T21:31:46.603Z,99.90
2022-12-29T21:34:15.082Z,99.90
2022-12-29T21:36:43.600Z,99.90
2022-12-29T21:39:12.823Z,99.90
2022-12-29T21:41:42.539Z,99.90
2022-12-29T21:44:28.268Z,99.90
2022-12-29T21:46:56.620Z,99.90
2022-12-29T21:49:26.339Z,99.90
2022-12-29T21:51:54.896Z,99.90
2022-12-29T21:54:42.972Z,99.90
2022-12-29T21:57:34.210Z,99.90
2022-12-29T22:00:20.510Z,99.90
2022-12-29T22:03:06.729Z,99.90
2022-12-29T22:05:52.910Z,99.90
2022-12-29T22:08:38.855Z,99.90
2022-12-29T22:11:26.892Z,99.90
2022-12-29T22:13:58.112Z,99.90
2022-12-29T22:16:26.946Z,99.90
2022-12-29T22:18:55.463Z,99.90
2022-12-29T22:21:23.839Z,99.90
2022-12-29T22:23:52.290Z,99.90
2022-12-29T22:26:20.797Z,99.90
2022-12-29T22:28:52.044Z,99.90
2022-12-29T22:31:29.044Z,99.90
2022-12-29T22:33:58.018Z,99.90
2022-12-29T22:36:27.374Z,99.90
2022-12-29T22:38:55.876Z,99.90
2022-12-29T22:41:24.700Z,99.90
2022-12-29T22:43:53.146Z,99.90
2022-12-29T22:46:21.688Z,99.90
2022-12-29T22:48:51.432Z,99.90
2022-12-29T22:51:19.908Z,99.90
2022-12-29T22:53:50.226Z,99.90
2022-12-29T22:56:18.815Z,99.90
2022-12-29T22:58:49.065Z,99.90
2022-12-29T23:01:19.343Z,99.90
2022-12-29T23:03:48.532Z,99.90
2022-12-29T23:06:19.234Z,99.90
2022-12-29T23:08:48.087Z,99.90
2022-12-29T23:11:16.441Z,99.90
2022-12-29T23:13:46.305Z,99.90
2022-12-29T23:16:15.957Z,99.90
2022-12-29T23:18:44.964Z,99.90
2022-12-29T23:21:13.742Z,99.90
2022-12-29T23:23:56.218Z,99.90
2022-12-29T23:26:26.587Z,99.90
2022-12-29T23:28:59.997Z,99.90
2022-12-29T23:31:29.855Z,99.90
2022-12-29T23:33:58.276Z,99.90
2022-12-29T23:36:27.321Z,99.90
2022-12-29T23:38:57.514Z,99.90
2022-12-29T23:41:26.888Z,99.90
2022-12-29T23:43:55.329Z,99.90
2022-12-29T23:46:25.757Z,99.90
2022-12-29T23:48:54.718Z,99.90
2022-12-29T23:51:23.126Z,99.90
2022-12-29T23:53:51.666Z,99.90
2022-12-29T23:56:23.639Z,99.90
2022-12-29T23:58:52.450Z,99.90
